createdAt,value
2023-03-15T12:50:19.244Z,23.61
2023-03-15T12:54:19.153Z,24.21
2023-03-15T12:58:19.995Z,24.46
2023-03-15T13:02:20.285Z,24.59
2023-03-15T13:06:19.378Z,24.60
2023-03-15T13:10:19.353Z,24.96
2023-03-15T13:14:19.521Z,25.10
2023-03-15T13:18:19.632Z,25.13
2023-03-15T13:22:19.774Z,25.10
2023-03-15T13:26:19.881Z,25.05
2023-03-15T13:30:20.039Z,25.00
2023-03-15T13:34:20.148Z,24.99
2023-03-15T13:38:20.344Z,25.03
2023-03-15T13:42:20.575Z,25.06
2023-03-15T13:46:20.687Z,25.05
2023-03-15T13:50:20.817Z,25.03
2023-03-15T13:54:21.003Z,25.00
2023-03-15T13:58:21.169Z,24.96
2023-03-15T14:02:21.392Z,24.90
2023-03-15T14:06:21.362Z,24.86
2023-03-15T14:10:21.286Z,24.82
2023-03-15T14:14:21.281Z,24.73
2023-03-15T14:18:21.281Z,24.73
2023-03-15T14:22:21.204Z,24.72
2023-03-15T14:26:21.229Z,24.70
2023-03-15T14:30:21.152Z,24.65
2023-03-15T14:34:21.125Z,24.62
2023-03-15T14:38:21.952Z,24.60
2023-03-15T14:42:21.030Z,24.59
2023-03-15T14:46:21.058Z,24.56
2023-03-15T14:50:20.968Z,24.51
2023-03-15T14:54:20.920Z,24.51
2023-03-15T14:58:20.925Z,24.48
2023-03-15T15:02:20.919Z,24.48
2023-03-15T15:06:21.454Z,24.45
2023-03-15T15:10:20.808Z,24.42
2023-03-15T15:14:20.804Z,24.49
2023-03-15T15:18:20.825Z,24.52
2023-03-15T15:22:21.789Z,24.52
2023-03-15T15:26:20.613Z,24.46
2023-03-15T15:30:20.740Z,24.48
2023-03-15T15:34:20.543Z,24.43
2023-03-15T15:38:21.047Z,24.42
2023-03-15T15:42:20.584Z,24.38
2023-03-15T15:46:20.683Z,24.38
2023-03-15T15:50:20.629Z,24.32
2023-03-15T15:54:20.724Z,24.28
2023-03-15T15:58:21.004Z,24.26
2023-03-15T16:02:21.092Z,24.25
2023-03-15T16:06:21.014Z,24.23
2023-03-15T16:10:21.096Z,24.22
2023-03-15T16:14:21.262Z,24.19
2023-03-15T16:18:21.330Z,24.19
2023-03-15T16:22:21.388Z,24.16
2023-03-15T16:26:21.561Z,24.16
2023-03-15T16:30:21.705Z,24.13
2023-03-15T16:34:22.016Z,24.12
2023-03-15T16:38:22.097Z,24.12
2023-03-15T16:42:22.995Z,24.09
2023-03-15T16:46:22.326Z,24.09
2023-03-15T16:50:22.577Z,24.09
2023-03-15T16:54:39.954Z,24.08
2023-03-15T16:58:23.719Z,24.04
2023-03-15T17:02:22.873Z,24.05
2023-03-15T17:06:23.032Z,24.04
2023-03-15T17:10:23.543Z,24.05
2023-03-15T17:14:24.039Z,24.05
2023-03-15T17:18:23.675Z,24.01
2023-03-15T17:22:23.894Z,23.99
2023-03-15T17:26:24.142Z,23.99
2023-03-15T17:30:24.337Z,23.98
2023-03-15T17:34:24.250Z,23.97
2023-03-15T17:38:24.243Z,23.95
2023-03-15T17:42:24.290Z,23.94
2023-03-15T17:46:24.202Z,23.94
2023-03-15T17:50:24.190Z,23.94
2023-03-15T17:54:24.069Z,23.89
2023-03-15T17:58:24.053Z,23.91
2023-03-15T18:02:24.019Z,23.89
2023-03-15T18:06:23.992Z,23.89
2023-03-15T18:10:25.039Z,23.87
2023-03-15T18:14:24.136Z,23.88
2023-03-15T18:18:24.124Z,23.84
2023-03-15T18:22:24.039Z,23.82
2023-03-15T18:26:24.018Z,23.84
2023-03-15T18:30:25.022Z,23.81
2023-03-15T18:34:23.895Z,23.81
2023-03-15T18:38:23.971Z,23.82
2023-03-15T18:42:23.835Z,23.82
2023-03-15T18:46:23.883Z,23.79
2023-03-15T18:50:23.769Z,23.78
2023-03-15T18:54:24.552Z,23.75
2023-03-15T18:58:23.729Z,23.78
2023-03-15T19:02:23.715Z,23.75
2023-03-15T19:06:23.715Z,23.74
2023-03-15T19:10:23.722Z,23.74
2023-03-15T19:14:23.720Z,23.74
2023-03-15T19:18:23.901Z,23.74
2023-03-15T19:22:23.775Z,23.74
2023-03-15T19:26:23.728Z,23.71
2023-03-15T19:30:23.650Z,23.72
2023-03-15T19:34:23.742Z,23.69
2023-03-15T19:38:23.663Z,23.68
2023-03-15T19:42:23.617Z,23.68
2023-03-15T19:46:23.770Z,23.71
2023-03-15T19:50:23.561Z,23.69
2023-03-15T19:54:23.548Z,23.69
2023-03-15T19:58:23.640Z,23.69
2023-03-15T20:02:23.492Z,23.68
2023-03-15T20:06:23.524Z,23.68
2023-03-15T20:10:24.051Z,23.65
2023-03-15T20:14:23.502Z,23.67
2023-03-15T20:18:23.530Z,23.64
2023-03-15T20:22:23.477Z,23.62
2023-03-15T20:26:23.493Z,23.64
2023-03-15T20:30:23.951Z,23.64
2023-03-15T20:34:23.515Z,23.61
2023-03-15T20:38:23.499Z,23.62
2023-03-15T20:42:23.512Z,23.60
2023-03-15T20:46:23.549Z,23.61
2023-03-15T20:50:24.109Z,23.60
2023-03-15T20:54:23.508Z,23.61
2023-03-15T20:58:23.537Z,23.60
2023-03-15T21:02:23.568Z,23.60
2023-03-15T21:06:23.601Z,23.57
2023-03-15T21:10:23.962Z,23.58
2023-03-15T21:14:23.658Z,23.58
2023-03-15T21:18:23.682Z,23.57
2023-03-15T21:22:23.735Z,23.56
2023-03-15T21:26:23.749Z,23.54
2023-03-15T21:30:24.038Z,23.54
2023-03-15T21:34:23.747Z,23.53
2023-03-15T21:38:23.818Z,23.53
2023-03-15T21:42:23.840Z,23.56
2023-03-15T21:46:23.896Z,23.50
2023-03-15T21:50:24.265Z,23.51
2023-03-15T21:54:23.950Z,23.48
2023-03-15T21:58:23.964Z,23.50
2023-03-15T22:02:24.018Z,23.51
2023-03-15T22:06:24.054Z,23.50
2023-03-15T22:10:24.409Z,23.48
2023-03-15T22:14:24.189Z,23.48
2023-03-15T22:18:24.218Z,23.47
2023-03-15T22:22:24.335Z,23.44
2023-03-15T22:26:25.120Z,23.44
2023-03-15T22:30:24.694Z,23.46
2023-03-15T22:34:24.543Z,23.44
2023-03-15T22:38:24.618Z,23.44
2023-03-15T22:42:24.687Z,23.41
2023-03-15T22:46:24.801Z,23.44
2023-03-15T22:50:25.274Z,23.44
2023-03-15T22:54:24.952Z,23.41
2023-03-15T22:58:25.028Z,23.40
2023-03-15T23:02:25.108Z,23.38
2023-03-15T23:06:25.166Z,23.37
2023-03-15T23:10:25.478Z,23.37
2023-03-15T23:14:25.295Z,23.38
2023-03-15T23:18:25.371Z,23.35
2023-03-15T23:22:25.513Z,23.35
2023-03-15T23:26:25.557Z,23.38
2023-03-15T23:30:25.940Z,23.41
2023-03-15T23:34:25.774Z,23.43
2023-03-15T23:38:25.892Z,23.44
2023-03-15T23:42:26.099Z,23.47
2023-03-15T23:46:26.021Z,23.51
2023-03-15T23:50:26.966Z,23.53
2023-03-15T23:54:26.175Z,23.53
2023-03-15T23:58:26.220Z,23.56
